sensor_id;sensor_type;location;lat;lon;timestamp;P1;durP1;ratioP1;P2;durP2;ratioP2
5493;SDS011;2769;49.864;8.656;2022-12-07T00:01:42;14.97;;;9.90;;
5493;SDS011;2769;49.864;8.656;2022-12-07T00:04:12;14.20;;;9.93;;
5493;SDS011;2769;49.864;8.656;2022-12-07T00:06:42;18.60;;;9.53;;
5493;SDS011;2769;49.864;8.656;2022-12-07T00:09:11;17.80;;;9.80;;
5493;SDS011;2769;49.864;8.656;2022-12-07T00:11:41;20.00;;;9.53;;
5493;SDS011;2769;49.864;8.656;2022-12-07T00:14:11;14.87;;;9.90;;
5493;SDS011;2769;49.864;8.656;2022-12-07T00:16:45;16.53;;;9.40;;
5493;SDS011;2769;49.864;8.656;2022-12-07T00:19:16;14.90;;;10.07;;
5493;SDS011;2769;49.864;8.656;2022-12-07T00:21:44;14.63;;;9.53;;
5493;SDS011;2769;49.864;8.656;2022-12-07T00:24:12;14.23;;;9.10;;
5493;SDS011;2769;49.864;8.656;2022-12-07T00:26:41;18.27;;;10.27;;
5493;SDS011;2769;49.864;8.656;2022-12-07T00:29:12;16.40;;;9.93;;
5493;SDS011;2769;49.864;8.656;2022-12-07T00:31:42;16.67;;;10.40;;
5493;SDS011;2769;49.864;8.656;2022-12-07T00:34:13;17.00;;;10.40;;
5493;SDS011;2769;49.864;8.656;2022-12-07T00:36:43;13.97;;;9.43;;
5493;SDS011;2769;49.864;8.656;2022-12-07T00:39:11;16.40;;;9.00;;
5493;SDS011;2769;49.864;8.656;2022-12-07T00:41:39;14.67;;;9.07;;
5493;SDS011;2769;49.864;8.656;2022-12-07T00:44:07;17.90;;;10.00;;
5493;SDS011;2769;49.864;8.656;2022-12-07T00:46:35;17.27;;;10.10;;
5493;SDS011;2769;49.864;8.656;2022-12-07T00:49:05;14.10;;;8.90;;
5493;SDS011;2769;49.864;8.656;2022-12-07T00:51:33;15.53;;;9.07;;
5493;SDS011;2769;49.864;8.656;2022-12-07T00:54:01;19.33;;;10.00;;
5493;SDS011;2769;49.864;8.656;2022-12-07T00:56:29;14.07;;;9.00;;
5493;SDS011;2769;49.864;8.656;2022-12-07T00:58:59;15.60;;;9.50;;
5493;SDS011;2769;49.864;8.656;2022-12-07T01:01:29;16.40;;;9.87;;
5493;SDS011;2769;49.864;8.656;2022-12-07T01:03:58;13.27;;;8.93;;
5493;SDS011;2769;49.864;8.656;2022-12-07T01:06:29;13.87;;;9.57;;
5493;SDS011;2769;49.864;8.656;2022-12-07T01:08:58;15.23;;;9.60;;
5493;SDS011;2769;49.864;8.656;2022-12-07T01:11:27;16.50;;;8.80;;
5493;SDS011;2769;49.864;8.656;2022-12-07T01:13:57;15.10;;;9.63;;
5493;SDS011;2769;49.864;8.656;2022-12-07T01:16:27;16.23;;;9.50;;
5493;SDS011;2769;49.864;8.656;2022-12-07T01:18:58;20.23;;;10.00;;
5493;SDS011;2769;49.864;8.656;2022-12-07T01:21:29;16.53;;;10.00;;
5493;SDS011;2769;49.864;8.656;2022-12-07T01:24:01;14.93;;;9.13;;
5493;SDS011;2769;49.864;8.656;2022-12-07T01:26:30;15.43;;;9.73;;
5493;SDS011;2769;49.864;8.656;2022-12-07T01:28:58;16.53;;;9.90;;
5493;SDS011;2769;49.864;8.656;2022-12-07T01:31:27;16.13;;;10.17;;
5493;SDS011;2769;49.864;8.656;2022-12-07T01:33:57;16.53;;;9.33;;
5493;SDS011;2769;49.864;8.656;2022-12-07T01:36:27;13.77;;;9.40;;
5493;SDS011;2769;49.864;8.656;2022-12-07T01:38:58;15.70;;;9.27;;
5493;SDS011;2769;49.864;8.656;2022-12-07T01:41:28;14.07;;;9.73;;
5493;SDS011;2769;49.864;8.656;2022-12-07T01:44:17;12.77;;;8.70;;
5493;SDS011;2769;49.864;8.656;2022-12-07T01:46:49;18.77;;;10.07;;
5493;SDS011;2769;49.864;8.656;2022-12-07T01:49:20;14.23;;;9.80;;
5493;SDS011;2769;49.864;8.656;2022-12-07T01:51:54;15.77;;;9.27;;
5493;SDS011;2769;49.864;8.656;2022-12-07T01:54:28;15.17;;;9.30;;
5493;SDS011;2769;49.864;8.656;2022-12-07T01:56:57;13.27;;;8.83;;
5493;SDS011;2769;49.864;8.656;2022-12-07T01:59:26;16.20;;;9.40;;
5493;SDS011;2769;49.864;8.656;2022-12-07T02:01:55;14.83;;;9.33;;
5493;SDS011;2769;49.864;8.656;2022-12-07T02:04:23;17.10;;;10.07;;
5493;SDS011;2769;49.864;8.656;2022-12-07T02:06:53;15.00;;;9.17;;
5493;SDS011;2769;49.864;8.656;2022-12-07T02:09:23;17.67;;;9.50;;
5493;SDS011;2769;49.864;8.656;2022-12-07T02:11:51;19.60;;;9.60;;
5493;SDS011;2769;49.864;8.656;2022-12-07T02:14:21;12.53;;;8.80;;
5493;SDS011;2769;49.864;8.656;2022-12-07T02:16:53;15.00;;;9.70;;
5493;SDS011;2769;49.864;8.656;2022-12-07T02:22:48;16.03;;;9.33;;
5493;SDS011;2769;49.864;8.656;2022-12-07T02:25:31;16.53;;;9.87;;
5493;SDS011;2769;49.864;8.656;2022-12-07T02:28:14;17.73;;;10.00;;
5493;SDS011;2769;49.864;8.656;2022-12-07T02:30:55;16.13;;;9.30;;
5493;SDS011;2769;49.864;8.656;2022-12-07T02:33:31;14.57;;;9.07;;
5493;SDS011;2769;49.864;8.656;2022-12-07T02:36:04;13.53;;;8.93;;
5493;SDS011;2769;49.864;8.656;2022-12-07T02:38:38;12.10;;;7.93;;
5493;SDS011;2769;49.864;8.656;2022-12-07T02:41:12;13.90;;;9.07;;
5493;SDS011;2769;49.864;8.656;2022-12-07T02:43:46;19.43;;;9.17;;
5493;SDS011;2769;49.864;8.656;2022-12-07T02:46:20;13.03;;;9.57;;
5493;SDS011;2769;49.864;8.656;2022-12-07T02:48:51;14.93;;;8.70;;
5493;SDS011;2769;49.864;8.656;2022-12-07T02:51:22;14.70;;;9.40;;
5493;SDS011;2769;49.864;8.656;2022-12-07T02:53:50;14.30;;;9.73;;
5493;SDS011;2769;49.864;8.656;2022-12-07T02:56:21;14.40;;;9.20;;
5493;SDS011;2769;49.864;8.656;2022-12-07T02:58:58;14.10;;;8.73;;
5493;SDS011;2769;49.864;8.656;2022-12-07T03:01:37;16.50;;;8.67;;
5493;SDS011;2769;49.864;8.656;2022-12-07T03:04:16;16.00;;;9.23;;
5493;SDS011;2769;49.864;8.656;2022-12-07T03:07:01;16.50;;;9.37;;
5493;SDS011;2769;49.864;8.656;2022-12-07T03:09:41;18.87;;;9.40;;
5493;SDS011;2769;49.864;8.656;2022-12-07T03:12:16;17.20;;;10.17;;
5493;SDS011;2769;49.864;8.656;2022-12-07T03:14:49;14.40;;;8.73;;
5493;SDS011;2769;49.864;8.656;2022-12-07T03:17:24;12.73;;;8.93;;
5493;SDS011;2769;49.864;8.656;2022-12-07T03:19:55;14.07;;;8.97;;
5493;SDS011;2769;49.864;8.656;2022-12-07T03:22:27;15.80;;;9.77;;
5493;SDS011;2769;49.864;8.656;2022-12-07T03:25:00;19.23;;;9.03;;
5493;SDS011;2769;49.864;8.656;2022-12-07T03:27:33;16.37;;;8.50;;
5493;SDS011;2769;49.864;8.656;2022-12-07T03:30:05;12.80;;;8.47;;
5493;SDS011;2769;49.864;8.656;2022-12-07T03:32:38;12.43;;;8.30;;
5493;SDS011;2769;49.864;8.656;2022-12-07T03:35:11;17.87;;;8.67;;
5493;SDS011;2769;49.864;8.656;2022-12-07T03:37:45;13.30;;;7.57;;
5493;SDS011;2769;49.864;8.656;2022-12-07T03:40:18;12.43;;;8.30;;
5493;SDS011;2769;49.864;8.656;2022-12-07T03:42:50;12.07;;;8.53;;
5493;SDS011;2769;49.864;8.656;2022-12-07T03:45:20;13.67;;;8.17;;
5493;SDS011;2769;49.864;8.656;2022-12-07T03:47:59;16.83;;;9.60;;
5493;SDS011;2769;49.864;8.656;2022-12-07T03:50:35;13.57;;;7.97;;
5493;SDS011;2769;49.864;8.656;2022-12-07T03:53:09;12.80;;;8.17;;
5493;SDS011;2769;49.864;8.656;2022-12-07T03:55:43;16.27;;;8.47;;
5493;SDS011;2769;49.864;8.656;2022-12-07T03:58:14;13.90;;;8.70;;
5493;SDS011;2769;49.864;8.656;2022-12-07T04:00:45;11.97;;;8.17;;
5493;SDS011;2769;49.864;8.656;2022-12-07T04:03:15;14.97;;;8.80;;
5493;SDS011;2769;49.864;8.656;2022-12-07T04:05:44;14.20;;;8.40;;
5493;SDS011;2769;49.864;8.656;2022-12-07T04:08:15;12.77;;;8.43;;
5493;SDS011;2769;49.864;8.656;2022-12-07T04:10:43;17.13;;;9.50;;
5493;SDS011;2769;49.864;8.656;2022-12-07T04:13:11;12.20;;;7.87;;
5493;SDS011;2769;49.864;8.656;2022-12-07T04:15:39;12.43;;;8.30;;
5493;SDS011;2769;49.864;8.656;2022-12-07T04:18:08;14.80;;;8.90;;
5493;SDS011;2769;49.864;8.656;2022-12-07T04:20:37;13.87;;;8.80;;
5493;SDS011;2769;49.864;8.656;2022-12-07T04:23:05;15.73;;;7.97;;
5493;SDS011;2769;49.864;8.656;2022-12-07T04:25:34;9.67;;;6.63;;
5493;SDS011;2769;49.864;8.656;2022-12-07T04:28:02;16.47;;;9.50;;
5493;SDS011;2769;49.864;8.656;2022-12-07T04:30:30;11.13;;;8.30;;
5493;SDS011;2769;49.864;8.656;2022-12-07T04:32:58;13.23;;;8.67;;
5493;SDS011;2769;49.864;8.656;2022-12-07T04:35:26;11.63;;;7.57;;
5493;SDS011;2769;49.864;8.656;2022-12-07T04:37:56;18.70;;;9.17;;
5493;SDS011;2769;49.864;8.656;2022-12-07T04:40:24;13.57;;;7.63;;
5493;SDS011;2769;49.864;8.656;2022-12-07T04:42:52;11.43;;;8.20;;
5493;SDS011;2769;49.864;8.656;2022-12-07T04:45:20;15.87;;;9.23;;
5493;SDS011;2769;49.864;8.656;2022-12-07T04:47:49;11.50;;;8.67;;
5493;SDS011;2769;49.864;8.656;2022-12-07T04:50:17;15.83;;;9.30;;
5493;SDS011;2769;49.864;8.656;2022-12-07T04:52:45;14.40;;;8.00;;
5493;SDS011;2769;49.864;8.656;2022-12-07T04:55:15;13.80;;;8.73;;
5493;SDS011;2769;49.864;8.656;2022-12-07T04:57:43;12.87;;;8.50;;
5493;SDS011;2769;49.864;8.656;2022-12-07T05:00:11;13.83;;;8.67;;
5493;SDS011;2769;49.864;8.656;2022-12-07T05:02:40;14.80;;;8.87;;
5493;SDS011;2769;49.864;8.656;2022-12-07T05:05:08;15.03;;;9.07;;
5493;SDS011;2769;49.864;8.656;2022-12-07T05:07:36;16.70;;;9.40;;
5493;SDS011;2769;49.864;8.656;2022-12-07T05:10:05;16.63;;;8.60;;
5493;SDS011;2769;49.864;8.656;2022-12-07T05:12:35;12.67;;;9.00;;
5493;SDS011;2769;49.864;8.656;2022-12-07T05:15:04;13.20;;;8.43;;
5493;SDS011;2769;49.864;8.656;2022-12-07T05:17:32;11.87;;;8.10;;
5493;SDS011;2769;49.864;8.656;2022-12-07T05:20:01;15.67;;;9.20;;
5493;SDS011;2769;49.864;8.656;2022-12-07T05:22:30;15.73;;;8.97;;
5493;SDS011;2769;49.864;8.656;2022-12-07T05:25:01;16.43;;;9.47;;
5493;SDS011;2769;49.864;8.656;2022-12-07T05:27:29;13.90;;;8.20;;
5493;SDS011;2769;49.864;8.656;2022-12-07T05:29:58;16.43;;;9.57;;
5493;SDS011;2769;49.864;8.656;2022-12-07T05:32:27;16.77;;;8.80;;
5493;SDS011;2769;49.864;8.656;2022-12-07T05:34:55;13.07;;;8.57;;
5493;SDS011;2769;49.864;8.656;2022-12-07T05:37:24;13.83;;;8.50;;
5493;SDS011;2769;49.864;8.656;2022-12-07T05:39:52;16.27;;;9.00;;
5493;SDS011;2769;49.864;8.656;2022-12-07T05:42:20;15.37;;;8.90;;
5493;SDS011;2769;49.864;8.656;2022-12-07T05:44:48;12.60;;;7.87;;
5493;SDS011;2769;49.864;8.656;2022-12-07T05:47:18;13.73;;;8.47;;
5493;SDS011;2769;49.864;8.656;2022-12-07T05:49:46;15.63;;;8.97;;
5493;SDS011;2769;49.864;8.656;2022-12-07T05:52:15;13.07;;;9.00;;
5493;SDS011;2769;49.864;8.656;2022-12-07T05:54:43;15.50;;;8.87;;
5493;SDS011;2769;49.864;8.656;2022-12-07T05:57:11;14.37;;;9.53;;
5493;SDS011;2769;49.864;8.656;2022-12-07T05:59:39;15.43;;;8.57;;
5493;SDS011;2769;49.864;8.656;2022-12-07T06:02:08;13.23;;;8.57;;
5493;SDS011;2769;49.864;8.656;2022-12-07T06:04:39;13.30;;;8.80;;
5493;SDS011;2769;49.864;8.656;2022-12-07T06:07:09;15.97;;;8.20;;
5493;SDS011;2769;49.864;8.656;2022-12-07T06:09:38;19.70;;;9.57;;
5493;SDS011;2769;49.864;8.656;2022-12-07T06:12:09;13.67;;;8.70;;
5493;SDS011;2769;49.864;8.656;2022-12-07T06:14:55;15.07;;;8.20;;
5493;SDS011;2769;49.864;8.656;2022-12-07T06:17:24;12.03;;;8.20;;
5493;SDS011;2769;49.864;8.656;2022-12-07T06:19:54;21.33;;;8.60;;
5493;SDS011;2769;49.864;8.656;2022-12-07T06:22:22;16.50;;;9.10;;
5493;SDS011;2769;49.864;8.656;2022-12-07T06:24:50;12.87;;;8.63;;
5493;SDS011;2769;49.864;8.656;2022-12-07T06:27:18;18.13;;;8.43;;
5493;SDS011;2769;49.864;8.656;2022-12-07T06:29:46;14.20;;;8.80;;
5493;SDS011;2769;49.864;8.656;2022-12-07T06:32:15;14.80;;;8.47;;
5493;SDS011;2769;49.864;8.656;2022-12-07T06:34:43;13.10;;;8.90;;
5493;SDS011;2769;49.864;8.656;2022-12-07T06:37:14;14.47;;;8.70;;
5493;SDS011;2769;49.864;8.656;2022-12-07T06:39:42;17.33;;;9.53;;
5493;SDS011;2769;49.864;8.656;2022-12-07T06:42:11;14.33;;;8.67;;
5493;SDS011;2769;49.864;8.656;2022-12-07T06:44:39;13.83;;;8.63;;
5493;SDS011;2769;49.864;8.656;2022-12-07T06:47:07;15.13;;;8.50;;
5493;SDS011;2769;49.864;8.656;2022-12-07T06:49:55;14.87;;;7.63;;
5493;SDS011;2769;49.864;8.656;2022-12-07T06:52:25;18.63;;;9.43;;
5493;SDS011;2769;49.864;8.656;2022-12-07T06:54:53;14.73;;;8.30;;
5493;SDS011;2769;49.864;8.656;2022-12-07T06:57:24;13.87;;;8.63;;
5493;SDS011;2769;49.864;8.656;2022-12-07T06:59:53;15.43;;;8.33;;
5493;SDS011;2769;49.864;8.656;2022-12-07T07:02:21;15.67;;;8.87;;
5493;SDS011;2769;49.864;8.656;2022-12-07T07:04:49;14.27;;;9.27;;
5493;SDS011;2769;49.864;8.656;2022-12-07T07:07:17;14.03;;;8.07;;
5493;SDS011;2769;49.864;8.656;2022-12-07T07:09:47;18.13;;;9.53;;
5493;SDS011;2769;49.864;8.656;2022-12-07T07:12:15;15.37;;;8.37;;
5493;SDS011;2769;49.864;8.656;2022-12-07T07:14:43;12.43;;;8.30;;
5493;SDS011;2769;49.864;8.656;2022-12-07T07:17:11;14.07;;;8.70;;
5493;SDS011;2769;49.864;8.656;2022-12-07T07:19:40;15.20;;;8.83;;
5493;SDS011;2769;49.864;8.656;2022-12-07T07:22:08;15.00;;;9.20;;
5493;SDS011;2769;49.864;8.656;2022-12-07T07:24:36;19.63;;;9.10;;
5493;SDS011;2769;49.864;8.656;2022-12-07T07:27:06;12.13;;;8.80;;
5493;SDS011;2769;49.864;8.656;2022-12-07T07:29:34;13.23;;;8.97;;
5493;SDS011;2769;49.864;8.656;2022-12-07T07:32:02;14.43;;;9.10;;
5493;SDS011;2769;49.864;8.656;2022-12-07T07:34:32;13.90;;;9.37;;
5493;SDS011;2769;49.864;8.656;2022-12-07T07:37:00;13.50;;;8.37;;
5493;SDS011;2769;49.864;8.656;2022-12-07T07:39:28;12.97;;;8.83;;
5493;SDS011;2769;49.864;8.656;2022-12-07T07:41:57;15.63;;;8.60;;
5493;SDS011;2769;49.864;8.656;2022-12-07T07:44:27;14.43;;;9.03;;
5493;SDS011;2769;49.864;8.656;2022-12-07T07:47:00;14.70;;;9.00;;
5493;SDS011;2769;49.864;8.656;2022-12-07T07:49:29;15.10;;;9.10;;
5493;SDS011;2769;49.864;8.656;2022-12-07T07:51:58;16.13;;;9.50;;
5493;SDS011;2769;49.864;8.656;2022-12-07T07:54:26;16.53;;;8.80;;
5493;SDS011;2769;49.864;8.656;2022-12-07T07:56:55;13.37;;;9.33;;
5493;SDS011;2769;49.864;8.656;2022-12-07T07:59:23;14.80;;;8.90;;
5493;SDS011;2769;49.864;8.656;2022-12-07T08:01:53;12.60;;;8.60;;
5493;SDS011;2769;49.864;8.656;2022-12-07T08:04:21;13.27;;;9.50;;
5493;SDS011;2769;49.864;8.656;2022-12-07T08:06:50;15.10;;;8.77;;
5493;SDS011;2769;49.864;8.656;2022-12-07T08:09:20;14.97;;;9.40;;
5493;SDS011;2769;49.864;8.656;2022-12-07T08:11:48;14.43;;;9.40;;
5493;SDS011;2769;49.864;8.656;2022-12-07T08:14:17;13.97;;;9.33;;
5493;SDS011;2769;49.864;8.656;2022-12-07T08:16:45;12.70;;;9.07;;
5493;SDS011;2769;49.864;8.656;2022-12-07T08:19:15;14.20;;;9.63;;
5493;SDS011;2769;49.864;8.656;2022-12-07T08:21:44;16.17;;;9.97;;
5493;SDS011;2769;49.864;8.656;2022-12-07T08:24:12;16.17;;;9.60;;
5493;SDS011;2769;49.864;8.656;2022-12-07T08:26:40;14.40;;;8.63;;
5493;SDS011;2769;49.864;8.656;2022-12-07T08:29:09;12.13;;;8.50;;
5493;SDS011;2769;49.864;8.656;2022-12-07T08:31:38;18.87;;;9.57;;
5493;SDS011;2769;49.864;8.656;2022-12-07T08:34:06;14.00;;;8.70;;
5493;SDS011;2769;49.864;8.656;2022-12-07T08:36:35;15.80;;;8.93;;
5493;SDS011;2769;49.864;8.656;2022-12-07T08:39:04;16.00;;;8.97;;
5493;SDS011;2769;49.864;8.656;2022-12-07T08:41:52;16.47;;;8.67;;
5493;SDS011;2769;49.864;8.656;2022-12-07T08:44:21;13.53;;;9.10;;
5493;SDS011;2769;49.864;8.656;2022-12-07T08:46:49;14.20;;;9.70;;
5493;SDS011;2769;49.864;8.656;2022-12-07T08:49:22;15.93;;;9.93;;
5493;SDS011;2769;49.864;8.656;2022-12-07T08:51:55;18.73;;;10.53;;
5493;SDS011;2769;49.864;8.656;2022-12-07T08:54:23;14.23;;;9.33;;
5493;SDS011;2769;49.864;8.656;2022-12-07T08:56:52;17.73;;;10.03;;
5493;SDS011;2769;49.864;8.656;2022-12-07T08:59:25;13.00;;;8.63;;
5493;SDS011;2769;49.864;8.656;2022-12-07T09:01:55;18.80;;;9.70;;
5493;SDS011;2769;49.864;8.656;2022-12-07T09:04:23;16.30;;;9.30;;
5493;SDS011;2769;49.864;8.656;2022-12-07T09:06:53;15.03;;;9.30;;
5493;SDS011;2769;49.864;8.656;2022-12-07T09:09:23;16.77;;;10.70;;
5493;SDS011;2769;49.864;8.656;2022-12-07T09:11:51;13.43;;;9.17;;
5493;SDS011;2769;49.864;8.656;2022-12-07T09:14:20;15.20;;;9.70;;
5493;SDS011;2769;49.864;8.656;2022-12-07T09:16:48;14.10;;;9.30;;
5493;SDS011;2769;49.864;8.656;2022-12-07T09:19:17;16.97;;;9.87;;
5493;SDS011;2769;49.864;8.656;2022-12-07T09:21:45;14.97;;;10.00;;
5493;SDS011;2769;49.864;8.656;2022-12-07T09:24:14;14.47;;;9.53;;
5493;SDS011;2769;49.864;8.656;2022-12-07T09:26:43;13.43;;;8.77;;
5493;SDS011;2769;49.864;8.656;2022-12-07T09:29:11;12.87;;;8.80;;
5493;SDS011;2769;49.864;8.656;2022-12-07T09:31:39;12.20;;;9.30;;
5493;SDS011;2769;49.864;8.656;2022-12-07T09:34:07;15.43;;;9.47;;
5493;SDS011;2769;49.864;8.656;2022-12-07T09:36:36;14.13;;;9.60;;
5493;SDS011;2769;49.864;8.656;2022-12-07T09:39:04;12.37;;;8.87;;
5493;SDS011;2769;49.864;8.656;2022-12-07T09:41:34;18.53;;;9.37;;
5493;SDS011;2769;49.864;8.656;2022-12-07T09:44:06;14.07;;;9.57;;
5493;SDS011;2769;49.864;8.656;2022-12-07T09:46:38;16.20;;;9.37;;
5493;SDS011;2769;49.864;8.656;2022-12-07T09:49:09;19.77;;;10.97;;
5493;SDS011;2769;49.864;8.656;2022-12-07T09:51:42;17.53;;;10.90;;
5493;SDS011;2769;49.864;8.656;2022-12-07T09:54:11;17.60;;;9.67;;
5493;SDS011;2769;49.864;8.656;2022-12-07T09:56:43;15.13;;;9.83;;
5493;SDS011;2769;49.864;8.656;2022-12-07T09:59:12;12.03;;;8.90;;
5493;SDS011;2769;49.864;8.656;2022-12-07T10:01:44;13.63;;;8.90;;
5493;SDS011;2769;49.864;8.656;2022-12-07T10:04:15;12.10;;;8.93;;
5493;SDS011;2769;49.864;8.656;2022-12-07T10:06:45;12.70;;;9.40;;
5493;SDS011;2769;49.864;8.656;2022-12-07T10:09:18;13.50;;;8.70;;
5493;SDS011;2769;49.864;8.656;2022-12-07T10:12:02;13.60;;;9.00;;
5493;SDS011;2769;49.864;8.656;2022-12-07T10:14:33;14.20;;;9.80;;
5493;SDS011;2769;49.864;8.656;2022-12-07T10:17:31;13.60;;;9.60;;
5493;SDS011;2769;49.864;8.656;2022-12-07T10:23:00;15.37;;;9.90;;
5493;SDS011;2769;49.864;8.656;2022-12-07T10:25:31;18.07;;;9.97;;
5493;SDS011;2769;49.864;8.656;2022-12-07T10:28:03;14.20;;;9.70;;
5493;SDS011;2769;49.864;8.656;2022-12-07T10:30:49;14.93;;;9.73;;
5493;SDS011;2769;49.864;8.656;2022-12-07T10:33:34;15.00;;;10.07;;
5493;SDS011;2769;49.864;8.656;2022-12-07T10:38:58;19.30;;;10.03;;
5493;SDS011;2769;49.864;8.656;2022-12-07T10:41:28;14.60;;;9.67;;
5493;SDS011;2769;49.864;8.656;2022-12-07T10:43:58;14.50;;;9.90;;
5493;SDS011;2769;49.864;8.656;2022-12-07T10:52:42;13.10;;;9.83;;
5493;SDS011;2769;49.864;8.656;2022-12-07T10:55:22;12.57;;;9.13;;
5493;SDS011;2769;49.864;8.656;2022-12-07T10:58:08;14.63;;;9.57;;
5493;SDS011;2769;49.864;8.656;2022-12-07T11:00:51;14.37;;;8.70;;
5493;SDS011;2769;49.864;8.656;2022-12-07T11:03:31;12.90;;;8.17;;
5493;SDS011;2769;49.864;8.656;2022-12-07T11:06:14;14.07;;;9.13;;
5493;SDS011;2769;49.864;8.656;2022-12-07T11:08:54;16.30;;;8.40;;
5493;SDS011;2769;49.864;8.656;2022-12-07T11:11:33;11.93;;;8.70;;
5493;SDS011;2769;49.864;8.656;2022-12-07T11:14:08;12.43;;;8.90;;
5493;SDS011;2769;49.864;8.656;2022-12-07T11:16:49;13.40;;;8.70;;
5493;SDS011;2769;49.864;8.656;2022-12-07T11:19:32;16.63;;;8.77;;
5493;SDS011;2769;49.864;8.656;2022-12-07T11:22:13;10.40;;;7.93;;
5493;SDS011;2769;49.864;8.656;2022-12-07T11:24:48;8.80;;;7.10;;
5493;SDS011;2769;49.864;8.656;2022-12-07T11:27:24;13.30;;;7.80;;
5493;SDS011;2769;49.864;8.656;2022-12-07T11:30:08;11.40;;;7.43;;
5493;SDS011;2769;49.864;8.656;2022-12-07T11:32:48;13.37;;;6.67;;
5493;SDS011;2769;49.864;8.656;2022-12-07T11:35:36;5.63;;;5.03;;
5493;SDS011;2769;49.864;8.656;2022-12-07T11:38:14;5.37;;;4.37;;
5493;SDS011;2769;49.864;8.656;2022-12-07T11:40:50;10.83;;;4.40;;
5493;SDS011;2769;49.864;8.656;2022-12-07T11:43:24;7.57;;;4.87;;
5493;SDS011;2769;49.864;8.656;2022-12-07T11:45:56;7.13;;;3.70;;
5493;SDS011;2769;49.864;8.656;2022-12-07T11:48:30;6.23;;;4.00;;
5493;SDS011;2769;49.864;8.656;2022-12-07T11:51:02;8.17;;;5.10;;
5493;SDS011;2769;49.864;8.656;2022-12-07T11:53:32;8.30;;;4.57;;
5493;SDS011;2769;49.864;8.656;2022-12-07T11:56:07;7.53;;;3.77;;
5493;SDS011;2769;49.864;8.656;2022-12-07T11:58:44;3.80;;;3.50;;
5493;SDS011;2769;49.864;8.656;2022-12-07T12:01:26;5.37;;;2.97;;
5493;SDS011;2769;49.864;8.656;2022-12-07T12:04:05;4.60;;;3.40;;
5493;SDS011;2769;49.864;8.656;2022-12-07T12:06:44;9.80;;;3.63;;
5493;SDS011;2769;49.864;8.656;2022-12-07T12:09:14;9.73;;;4.07;;
5493;SDS011;2769;49.864;8.656;2022-12-07T12:12:08;9.10;;;3.90;;
5493;SDS011;2769;49.864;8.656;2022-12-07T12:15:28;3.90;;;3.13;;
5493;SDS011;2769;49.864;8.656;2022-12-07T12:18:10;9.03;;;3.20;;
5493;SDS011;2769;49.864;8.656;2022-12-07T12:20:51;3.50;;;3.13;;
5493;SDS011;2769;49.864;8.656;2022-12-07T12:23:24;4.27;;;3.10;;
5493;SDS011;2769;49.864;8.656;2022-12-07T12:26:02;4.03;;;3.10;;
5493;SDS011;2769;49.864;8.656;2022-12-07T12:28:36;5.30;;;3.17;;
5493;SDS011;2769;49.864;8.656;2022-12-07T12:31:16;3.20;;;2.90;;
5493;SDS011;2769;49.864;8.656;2022-12-07T12:34:03;3.97;;;3.47;;
5493;SDS011;2769;49.864;8.656;2022-12-07T12:36:53;3.03;;;2.67;;
5493;SDS011;2769;49.864;8.656;2022-12-07T12:39:22;6.97;;;3.37;;
5493;SDS011;2769;49.864;8.656;2022-12-07T12:41:53;7.67;;;3.80;;
5493;SDS011;2769;49.864;8.656;2022-12-07T12:54:04;11.87;;;7.90;;
5493;SDS011;2769;49.864;8.656;2022-12-07T12:56:38;10.60;;;7.57;;
5493;SDS011;2769;49.864;8.656;2022-12-07T12:59:22;10.97;;;7.23;;
5493;SDS011;2769;49.864;8.656;2022-12-07T13:01:54;10.00;;;7.37;;
5493;SDS011;2769;49.864;8.656;2022-12-07T13:04:48;8.70;;;6.80;;
5493;SDS011;2769;49.864;8.656;2022-12-07T13:10:38;11.13;;;5.87;;
5493;SDS011;2769;49.864;8.656;2022-12-07T13:13:28;10.70;;;6.50;;
5493;SDS011;2769;49.864;8.656;2022-12-07T13:19:33;8.00;;;5.60;;
5493;SDS011;2769;49.864;8.656;2022-12-07T13:28:17;7.67;;;2.10;;
5493;SDS011;2769;49.864;8.656;2022-12-07T13:30:50;3.70;;;2.40;;
5493;SDS011;2769;49.864;8.656;2022-12-07T13:33:27;4.50;;;3.10;;
5493;SDS011;2769;49.864;8.656;2022-12-07T13:35:57;4.70;;;2.87;;
5493;SDS011;2769;49.864;8.656;2022-12-07T13:38:27;3.30;;;2.87;;
5493;SDS011;2769;49.864;8.656;2022-12-07T13:41:03;4.67;;;3.80;;
5493;SDS011;2769;49.864;8.656;2022-12-07T13:43:44;3.00;;;2.80;;
5493;SDS011;2769;49.864;8.656;2022-12-07T13:46:15;3.80;;;2.97;;
5493;SDS011;2769;49.864;8.656;2022-12-07T13:48:47;3.17;;;2.87;;
5493;SDS011;2769;49.864;8.656;2022-12-07T13:51:17;3.67;;;2.93;;
5493;SDS011;2769;49.864;8.656;2022-12-07T13:53:47;3.50;;;3.20;;
5493;SDS011;2769;49.864;8.656;2022-12-07T13:56:18;3.90;;;3.13;;
5493;SDS011;2769;49.864;8.656;2022-12-07T13:58:50;3.37;;;3.07;;
5493;SDS011;2769;49.864;8.656;2022-12-07T14:01:19;6.40;;;3.50;;
5493;SDS011;2769;49.864;8.656;2022-12-07T14:03:48;8.80;;;3.30;;
5493;SDS011;2769;49.864;8.656;2022-12-07T14:06:22;4.53;;;2.90;;
5493;SDS011;2769;49.864;8.656;2022-12-07T14:09:17;3.17;;;2.60;;
5493;SDS011;2769;49.864;8.656;2022-12-07T14:11:48;5.57;;;3.30;;
5493;SDS011;2769;49.864;8.656;2022-12-07T14:14:19;5.60;;;3.47;;
5493;SDS011;2769;49.864;8.656;2022-12-07T14:16:56;12.27;;;2.93;;
5493;SDS011;2769;49.864;8.656;2022-12-07T14:19:43;5.10;;;4.03;;
5493;SDS011;2769;49.864;8.656;2022-12-07T14:22:25;6.77;;;3.90;;
5493;SDS011;2769;49.864;8.656;2022-12-07T14:25:09;4.70;;;3.43;;
5493;SDS011;2769;49.864;8.656;2022-12-07T14:27:52;8.03;;;3.73;;
5493;SDS011;2769;49.864;8.656;2022-12-07T14:30:25;6.27;;;3.20;;
5493;SDS011;2769;49.864;8.656;2022-12-07T14:32:56;9.17;;;3.90;;
5493;SDS011;2769;49.864;8.656;2022-12-07T14:35:26;8.70;;;3.53;;
5493;SDS011;2769;49.864;8.656;2022-12-07T14:37:55;4.90;;;3.70;;
5493;SDS011;2769;49.864;8.656;2022-12-07T14:40:24;6.33;;;3.37;;
5493;SDS011;2769;49.864;8.656;2022-12-07T14:42:56;5.07;;;4.20;;
5493;SDS011;2769;49.864;8.656;2022-12-07T14:45:27;5.53;;;3.30;;
5493;SDS011;2769;49.864;8.656;2022-12-07T14:47:55;4.57;;;3.13;;
5493;SDS011;2769;49.864;8.656;2022-12-07T14:50:44;7.10;;;3.50;;
5493;SDS011;2769;49.864;8.656;2022-12-07T14:53:36;5.20;;;2.90;;
5493;SDS011;2769;49.864;8.656;2022-12-07T14:56:08;4.80;;;2.90;;
5493;SDS011;2769;49.864;8.656;2022-12-07T14:58:37;4.10;;;3.67;;
5493;SDS011;2769;49.864;8.656;2022-12-07T15:01:08;5.67;;;2.93;;
5493;SDS011;2769;49.864;8.656;2022-12-07T15:03:36;6.47;;;3.13;;
5493;SDS011;2769;49.864;8.656;2022-12-07T15:06:05;5.57;;;2.90;;
5493;SDS011;2769;49.864;8.656;2022-12-07T15:08:34;6.17;;;3.10;;
5493;SDS011;2769;49.864;8.656;2022-12-07T15:11:02;5.00;;;3.10;;
5493;SDS011;2769;49.864;8.656;2022-12-07T15:13:31;6.23;;;2.53;;
5493;SDS011;2769;49.864;8.656;2022-12-07T15:16:19;4.10;;;2.73;;
5493;SDS011;2769;49.864;8.656;2022-12-07T15:18:51;5.50;;;2.93;;
5493;SDS011;2769;49.864;8.656;2022-12-07T15:21:40;2.93;;;2.60;;
5493;SDS011;2769;49.864;8.656;2022-12-07T15:24:09;3.20;;;2.73;;
5493;SDS011;2769;49.864;8.656;2022-12-07T15:26:38;2.97;;;2.50;;
5493;SDS011;2769;49.864;8.656;2022-12-07T15:29:07;3.03;;;2.20;;
5493;SDS011;2769;49.864;8.656;2022-12-07T15:31:38;4.57;;;2.00;;
5493;SDS011;2769;49.864;8.656;2022-12-07T15:34:22;2.20;;;1.83;;
5493;SDS011;2769;49.864;8.656;2022-12-07T15:36:51;4.90;;;2.07;;
5493;SDS011;2769;49.864;8.656;2022-12-07T15:39:19;1.90;;;1.80;;
5493;SDS011;2769;49.864;8.656;2022-12-07T15:41:49;4.20;;;2.40;;
5493;SDS011;2769;49.864;8.656;2022-12-07T15:44:17;3.10;;;2.60;;
5493;SDS011;2769;49.864;8.656;2022-12-07T15:47:05;2.50;;;2.30;;
5493;SDS011;2769;49.864;8.656;2022-12-07T15:49:33;2.70;;;2.50;;
5493;SDS011;2769;49.864;8.656;2022-12-07T15:52:01;2.70;;;2.50;;
5493;SDS011;2769;49.864;8.656;2022-12-07T15:54:32;3.03;;;2.50;;
5493;SDS011;2769;49.864;8.656;2022-12-07T15:57:01;2.97;;;2.77;;
5493;SDS011;2769;49.864;8.656;2022-12-07T15:59:29;4.13;;;3.10;;
5493;SDS011;2769;49.864;8.656;2022-12-07T16:01:57;4.80;;;2.43;;
5493;SDS011;2769;49.864;8.656;2022-12-07T16:04:27;3.30;;;3.00;;
5493;SDS011;2769;49.864;8.656;2022-12-07T16:06:56;4.53;;;3.00;;
5493;SDS011;2769;49.864;8.656;2022-12-07T16:09:25;6.40;;;3.40;;
5493;SDS011;2769;49.864;8.656;2022-12-07T16:11:53;4.27;;;3.13;;
5493;SDS011;2769;49.864;8.656;2022-12-07T16:14:21;4.47;;;2.70;;